createdAt,value
2023-06-04T00:01:16.054Z,99458.88
2023-06-04T00:06:21.475Z,99450.78
2023-06-04T00:11:24.463Z,99450.56
2023-06-04T00:16:27.538Z,99449.91
2023-06-04T00:21:31.870Z,99439.84
2023-06-04T00:26:35.641Z,99434.97
2023-06-04T00:31:38.595Z,99426.28
2023-06-04T00:36:42.996Z,99433.06
2023-06-04T00:41:45.956Z,99429.97
2023-06-04T00:46:50.415Z,99416.69
2023-06-04T00:51:54.839Z,99430.75
2023-06-04T00:56:57.971Z,99416.00
2023-06-04T01:02:04.373Z,99421.44
2023-06-04T01:07:10.995Z,99428.19
2023-06-04T01:12:14.619Z,99418.13
2023-06-04T01:17:22.036Z,99410.75
2023-06-04T01:22:35.468Z,99418.00
2023-06-04T01:27:38.932Z,99407.47
2023-06-04T01:32:42.092Z,99412.41
2023-06-04T01:37:46.479Z,99415.56
2023-06-04T01:42:49.441Z,99411.53
2023-06-04T01:47:53.335Z,99415.38
2023-06-04T01:52:57.692Z,99419.72
2023-06-04T01:58:01.250Z,99416.00
2023-06-04T02:03:04.395Z,99411.16
2023-06-04T02:08:10.178Z,99409.25
2023-06-04T02:13:13.110Z,99408.81
2023-06-04T02:18:18.638Z,99411.75
2023-06-04T02:23:23.298Z,99417.13
2023-06-04T02:28:26.694Z,99408.50
2023-06-04T02:33:29.691Z,99408.47
2023-06-04T02:38:34.562Z,99417.47
2023-06-04T02:43:38.612Z,99420.19
2023-06-04T02:48:41.540Z,99418.75
2023-06-04T02:53:46.517Z,99427.56
2023-06-04T02:58:53.887Z,99421.78
2023-06-04T03:03:58.435Z,99416.94
2023-06-04T03:09:03.013Z,99425.06
2023-06-04T03:14:06.302Z,99430.09
2023-06-04T03:19:09.854Z,99432.97
2023-06-04T03:24:14.253Z,99425.84
2023-06-04T03:29:17.404Z,99434.72
2023-06-04T03:34:20.501Z,99432.84
2023-06-04T03:39:26.005Z,99435.13
2023-06-04T03:44:29.396Z,99437.91
2023-06-04T03:49:32.628Z,99440.13
2023-06-04T03:54:38.106Z,99439.00
2023-06-04T03:59:41.217Z,99439.00
2023-06-04T04:04:44.682Z,99439.66
2023-06-04T04:09:49.224Z,99445.22
2023-06-04T04:14:52.290Z,99450.75
2023-06-04T04:27:05.144Z,99461.16
2023-06-04T04:32:12.200Z,99444.59
2023-06-04T04:37:22.241Z,99444.63
2023-06-04T04:42:28.063Z,99452.16
2023-06-04T04:47:31.491Z,99445.56
2023-06-04T04:52:34.614Z,99452.56
2023-06-04T04:57:39.076Z,99449.44
2023-06-04T05:02:42.248Z,99450.94
2023-06-04T05:07:46.556Z,99461.78
2023-06-04T05:12:58.070Z,99456.06
2023-06-04T05:18:06.462Z,99453.03
2023-06-04T05:23:14.135Z,99455.84
2023-06-04T05:28:21.655Z,99455.09
2023-06-04T05:33:25.043Z,99466.53
2023-06-04T05:38:33.450Z,99462.91
2023-06-04T05:43:45.522Z,99478.81
2023-06-04T05:48:52.217Z,99468.94
2023-06-04T05:53:56.467Z,99479.59
2023-06-04T05:59:00.995Z,99475.88
2023-06-04T06:04:04.947Z,99478.69
2023-06-04T06:09:08.111Z,99479.66
2023-06-04T06:14:12.585Z,99479.44
2023-06-04T06:19:18.028Z,99482.72
2023-06-04T06:24:21.297Z,99479.53
2023-06-04T06:29:26.296Z,99486.16
2023-06-04T06:34:30.258Z,99496.84
2023-06-04T06:39:34.461Z,99501.88
2023-06-04T06:44:38.725Z,99500.13
2023-06-04T06:49:41.653Z,99510.25
2023-06-04T06:54:44.605Z,99501.63
2023-06-04T06:59:49.422Z,99512.19
2023-06-04T07:04:52.368Z,99510.94
2023-06-04T07:09:55.280Z,99515.22
2023-06-04T07:14:59.575Z,99512.03
2023-06-04T07:20:02.732Z,99512.78
2023-06-04T07:25:06.476Z,99508.31
2023-06-04T07:30:11.920Z,99510.94
2023-06-04T07:35:14.949Z,99510.91
2023-06-04T07:40:18.268Z,99518.66
2023-06-04T07:45:22.585Z,99515.94
2023-06-04T07:50:25.846Z,99508.50
2023-06-04T07:55:28.830Z,99506.63
2023-06-04T08:00:33.253Z,99509.50
2023-06-04T08:05:37.113Z,99510.09
2023-06-04T08:10:41.856Z,99505.75
2023-06-04T08:15:46.509Z,99508.75
2023-06-04T08:20:49.672Z,99499.97
2023-06-04T08:25:52.615Z,99508.56
2023-06-04T08:30:56.912Z,99510.47
2023-06-04T08:35:59.841Z,99505.28
2023-06-04T08:41:12.080Z,99511.66
2023-06-04T08:46:19.896Z,99516.91
2023-06-04T08:51:23.116Z,99501.00
2023-06-04T08:56:27.013Z,99507.53
2023-06-04T09:01:32.276Z,99506.59
2023-06-04T09:06:36.187Z,99489.50
2023-06-04T09:11:43.838Z,99501.56
2023-06-04T09:16:50.006Z,99500.19
2023-06-04T09:21:54.404Z,99501.69
2023-06-04T09:26:57.306Z,99510.22
2023-06-04T09:32:01.681Z,99505.97
2023-06-04T09:37:05.060Z,99513.09
2023-06-04T09:42:08.104Z,99499.91
2023-06-04T09:47:12.475Z,99488.31
2023-06-04T09:52:16.082Z,99488.47
2023-06-04T09:57:20.000Z,99488.75
2023-06-04T10:02:31.262Z,99484.53
2023-06-04T10:07:38.294Z,99490.28
2023-06-04T10:12:42.193Z,99490.50
2023-06-04T10:17:46.906Z,99491.38
2023-06-04T10:22:50.479Z,99482.59
2023-06-04T10:27:54.154Z,99480.38
2023-06-04T10:32:59.434Z,99482.59
2023-06-04T10:38:09.898Z,99482.69
2023-06-04T10:43:14.257Z,99495.91
2023-06-04T10:48:19.408Z,99479.38
2023-06-04T10:53:23.770Z,99482.75
2023-06-04T10:58:34.267Z,99477.72
2023-06-04T11:03:39.194Z,99474.44
2023-06-04T11:08:42.432Z,99475.19
2023-06-04T11:13:45.845Z,99469.78
2023-06-04T11:18:58.527Z,99477.06
2023-06-04T11:24:01.943Z,99469.84
2023-06-04T11:29:09.546Z,99473.50
2023-06-04T11:34:24.533Z,99472.25
2023-06-04T11:39:39.348Z,99465.44
2023-06-04T11:44:46.242Z,99472.72
2023-06-04T11:49:50.845Z,99463.09
2023-06-04T11:54:54.029Z,99478.34
2023-06-04T11:59:57.104Z,99474.91
2023-06-04T12:05:01.422Z,99464.47
2023-06-04T12:10:08.511Z,99459.34
2023-06-04T12:15:12.484Z,99450.94
2023-06-04T12:20:16.877Z,99452.50
2023-06-04T12:25:27.360Z,99459.25
2023-06-04T12:30:40.006Z,99469.28
2023-06-04T12:35:45.831Z,99459.84
2023-06-04T12:40:48.760Z,99462.56
2023-06-04T12:45:51.781Z,99459.63
2023-06-04T12:50:56.109Z,99445.31
2023-06-04T12:56:00.214Z,99445.97
2023-06-04T13:01:03.441Z,99453.25
2023-06-04T13:06:07.859Z,99451.03
2023-06-04T13:11:10.995Z,99444.97
2023-06-04T13:16:13.972Z,99434.09
2023-06-04T13:21:18.338Z,99439.13
2023-06-04T13:26:22.973Z,99438.22
2023-06-04T13:31:25.986Z,99439.25
2023-06-04T13:36:30.472Z,99437.38
2023-06-04T13:41:33.367Z,99430.84
2023-06-04T13:46:36.364Z,99425.75
2023-06-04T13:51:40.747Z,99432.19
2023-06-04T13:56:43.873Z,99422.84
2023-06-04T14:01:46.867Z,99412.13
2023-06-04T14:06:51.200Z,99408.06
2023-06-04T14:11:54.132Z,99418.78
2023-06-04T14:16:58.760Z,99410.41
2023-06-04T14:22:03.270Z,99399.34
2023-06-04T14:27:07.744Z,99412.31
2023-06-04T14:32:10.777Z,99420.41
2023-06-04T14:37:15.163Z,99403.66
2023-06-04T14:42:18.211Z,99402.09
2023-06-04T14:47:21.161Z,99387.28
2023-06-04T14:52:25.538Z,99397.59
2023-06-04T14:57:28.589Z,99391.34
2023-06-04T15:02:31.646Z,99391.47
2023-06-04T15:07:36.278Z,99377.53
2023-06-04T15:12:40.509Z,99378.47
2023-06-04T15:17:45.569Z,99382.81
2023-06-04T15:22:51.528Z,99377.78
2023-06-04T15:27:54.554Z,99380.34
2023-06-04T15:33:01.594Z,99386.41
2023-06-04T15:38:06.105Z,99387.97
2023-06-04T15:43:09.108Z,99392.00
2023-06-04T15:48:12.064Z,99381.63
2023-06-04T15:53:16.431Z,99378.06
2023-06-04T15:58:19.412Z,99384.72
2023-06-04T16:03:22.488Z,99367.47
2023-06-04T16:08:27.014Z,99381.03
2023-06-04T16:13:29.979Z,99384.63
2023-06-04T16:18:33.204Z,99387.22
2023-06-04T16:23:37.611Z,99371.63
2023-06-04T16:28:40.831Z,99366.66
2023-06-04T16:33:43.814Z,99383.34
2023-06-04T16:38:48.135Z,99369.34
2023-06-04T16:43:52.255Z,99373.13
2023-06-04T16:48:55.696Z,99365.53
2023-06-04T16:53:59.969Z,99364.19
2023-06-04T16:59:02.965Z,99362.59
2023-06-04T17:04:06.277Z,99356.53
2023-06-04T17:09:10.550Z,99361.97
2023-06-04T17:14:13.471Z,99353.31
2023-06-04T17:19:16.442Z,99356.25
2023-06-04T17:24:21.014Z,99367.88
2023-06-04T17:29:25.133Z,99367.19
2023-06-04T17:34:28.053Z,99370.00
2023-06-04T17:39:33.356Z,99365.03
2023-06-04T17:44:36.339Z,99364.94
2023-06-04T17:49:39.254Z,99362.47
2023-06-04T17:54:43.598Z,99366.09
2023-06-04T17:59:46.586Z,99361.50
2023-06-04T18:04:50.354Z,99363.84
2023-06-04T18:09:54.721Z,99365.50
2023-06-04T18:14:57.673Z,99369.25
2023-06-04T18:20:00.646Z,99377.63
2023-06-04T18:25:07.112Z,99378.47
2023-06-04T18:30:11.045Z,99371.06
2023-06-04T18:35:14.017Z,99374.63
2023-06-04T18:40:18.473Z,99377.88
2023-06-04T18:45:21.560Z,99380.88
2023-06-04T18:50:24.581Z,99387.31
2023-06-04T18:55:28.916Z,99392.41
2023-06-04T19:00:31.853Z,99386.88
2023-06-04T19:05:34.803Z,99386.06
2023-06-04T19:10:39.592Z,99396.44
2023-06-04T19:15:42.662Z,99402.19
2023-06-04T19:20:45.640Z,99406.97
2023-06-04T19:25:49.961Z,99410.09
2023-06-04T19:30:53.212Z,99413.97
2023-06-04T19:35:56.474Z,99413.88
2023-06-04T19:41:02.291Z,99422.94
2023-06-04T19:46:05.466Z,99419.13
2023-06-04T19:51:09.082Z,99430.38
2023-06-04T19:56:13.378Z,99432.84
2023-06-04T20:01:17.152Z,99431.94
2023-06-04T20:06:20.208Z,99447.06
2023-06-04T20:11:24.767Z,99448.50
2023-06-04T20:16:27.838Z,99450.66
2023-06-04T20:21:33.945Z,99454.38
2023-06-04T20:26:39.538Z,99455.94
2023-06-04T20:31:43.468Z,99466.63
2023-06-04T20:36:46.599Z,99456.75
2023-06-04T20:41:50.903Z,99455.72
2023-06-04T20:46:53.828Z,99458.03
2023-06-04T20:51:56.795Z,99467.25
2023-06-04T20:57:01.289Z,99470.25
2023-06-04T21:02:04.409Z,99467.13
2023-06-04T21:07:07.734Z,99480.59
2023-06-04T21:12:12.059Z,99486.06
2023-06-04T21:17:15.119Z,99494.34
2023-06-04T21:30:31.567Z,99499.19
2023-06-04T21:35:40.693Z,99488.72
2023-06-04T21:40:46.335Z,99490.56
2023-06-04T21:45:49.419Z,99489.84
2023-06-04T21:50:53.725Z,99494.72
2023-06-04T21:55:56.606Z,99492.53
2023-06-04T22:00:59.595Z,99495.34
2023-06-04T22:06:04.794Z,99496.72
2023-06-04T22:11:07.886Z,99494.72
2023-06-04T22:16:10.973Z,99498.22
2023-06-04T22:21:15.450Z,99494.16
2023-06-04T22:26:28.911Z,99496.94
2023-06-04T22:31:40.271Z,99495.91
2023-06-04T22:36:45.645Z,99497.72
2023-06-04T22:41:48.667Z,99495.03
2023-06-04T22:46:51.681Z,99482.88
2023-06-04T22:51:56.130Z,99484.31
2023-06-04T22:56:59.127Z,99493.03
2023-06-04T23:02:02.301Z,99481.84
2023-06-04T23:07:06.847Z,99485.66
2023-06-04T23:12:10.190Z,99484.91
2023-06-04T23:17:13.665Z,99485.00
2023-06-04T23:22:17.955Z,99481.88
2023-06-04T23:27:20.881Z,99480.34
2023-06-04T23:32:24.372Z,99475.06
2023-06-04T23:37:28.828Z,99470.69
2023-06-04T23:42:31.784Z,99484.06
2023-06-04T23:47:34.733Z,99473.44
2023-06-04T23:52:40.129Z,99472.06
2023-06-04T23:57:43.057Z,99462.81
